Time;durP1;ratioP1;P1;durP2;ratioP2;P2;SDS_P1;SDS_P2;PMS_P1;PMS_P2;Temp;Humidity;BMP_temperature;BMP_pressure;BME280_temperature;BME280_humidity;BME280_pressure;Samples;Min_cycle;Max_cycle;Signal;HPM_P1;HPM_P2
2024/01/15 00:00:51;;;;;;;8.83;7.93;;;1.60;99.90;;;;;;5013001;28;20444;-53
2024/01/15 00:03:17;;;;;;;9.63;8.70;;;1.60;99.90;;;;;;5013066;28;20495;-51
2024/01/15 00:05:45;;;;;;;10.97;9.83;;;1.60;99.90;;;;;;5012830;28;20719;-52
2024/01/15 00:08:12;;;;;;;9.77;8.70;;;1.60;99.90;;;;;;5012633;28;20476;-52
2024/01/15 00:10:40;;;;;;;10.10;9.00;;;1.60;99.90;;;;;;5009967;28;20494;-52
2024/01/15 00:13:06;;;;;;;11.13;9.47;;;1.60;99.90;;;;;;5004970;28;20475;-51
2024/01/15 00:15:33;;;;;;;9.67;8.77;;;1.60;99.90;;;;;;5008601;28;20452;-51
2024/01/15 00:17:59;;;;;;;9.43;8.40;;;1.60;99.90;;;;;;5011487;28;20502;-51
2024/01/15 00:20:26;;;;;;;11.00;9.57;;;1.50;99.90;;;;;;5011792;28;20448;-52
2024/01/15 00:22:54;;;;;;;9.50;8.30;;;1.60;99.90;;;;;;5003998;28;20470;-51
2024/01/15 00:25:21;;;;;;;10.60;9.50;;;1.60;99.90;;;;;;5011284;28;20562;-51
2024/01/15 00:27:47;;;;;;;9.07;8.17;;;1.60;99.90;;;;;;5005282;28;20917;-52
2024/01/15 00:30:14;;;;;;;10.03;8.47;;;1.60;99.90;;;;;;5011177;28;20440;-52
2024/01/15 00:32:41;;;;;;;8.60;7.73;;;1.60;99.90;;;;;;5012126;28;20476;-53
2024/01/15 00:35:08;;;;;;;10.27;9.27;;;1.50;99.90;;;;;;5012691;28;20444;-52
2024/01/15 00:37:35;;;;;;;8.87;8.10;;;1.50;99.90;;;;;;5004655;28;20813;-52
2024/01/15 00:40:03;;;;;;;9.27;8.37;;;1.50;99.90;;;;;;5007715;28;20488;-52
2024/01/15 00:42:29;;;;;;;7.80;7.10;;;1.50;99.90;;;;;;5012613;28;20517;-52
2024/01/15 00:44:56;;;;;;;7.87;6.97;;;1.50;99.90;;;;;;5010203;28;20858;-52
2024/01/15 00:47:22;;;;;;;9.10;8.10;;;1.50;99.90;;;;;;5003719;28;20944;-52
2024/01/15 00:49:49;;;;;;;9.17;7.70;;;1.50;99.90;;;;;;5007999;28;20825;-52
2024/01/15 00:52:15;;;;;;;9.23;7.67;;;1.60;99.90;;;;;;4997861;28;20464;-52
2024/01/15 00:54:42;;;;;;;8.57;7.70;;;1.60;99.90;;;;;;5012104;28;20510;-52
2024/01/15 00:57:10;;;;;;;7.17;6.53;;;1.60;99.90;;;;;;5000035;28;20539;-51
2024/01/15 00:59:36;;;;;;;7.93;7.17;;;1.60;99.90;;;;;;5011655;28;20545;-53
2024/01/15 01:02:03;;;;;;;9.53;8.53;;;1.50;99.90;;;;;;5003891;28;20445;-53
2024/01/15 01:04:30;;;;;;;7.03;5.93;;;1.50;99.90;;;;;;5011423;28;20455;-53
2024/01/15 01:06:57;;;;;;;6.93;6.33;;;1.50;96.10;;;;;;5012222;28;20589;-51
2024/01/15 01:09:23;;;;;;;7.33;6.63;;;1.50;93.30;;;;;;5010758;28;20508;-52
2024/01/15 01:11:50;;;;;;;6.77;6.17;;;1.40;86.90;;;;;;5011219;28;20447;-52
2024/01/15 01:14:18;;;;;;;7.33;6.63;;;1.40;81.50;;;;;;5004450;28;21038;-53
2024/01/15 01:16:44;;;;;;;7.93;7.13;;;1.40;83.90;;;;;;5011507;28;20475;-51
2024/01/15 01:19:11;;;;;;;9.87;6.37;;;1.40;77.30;;;;;;5013275;28;20502;-53
2024/01/15 01:21:37;;;;;;;7.07;6.37;;;1.40;76.60;;;;;;5012251;28;20440;-51
2024/01/15 01:24:04;;;;;;;6.80;5.90;;;1.40;78.10;;;;;;5007296;28;20494;-51
2024/01/15 01:26:31;;;;;;;8.87;6.60;;;1.30;76.10;;;;;;5010779;28;20533;-52
2024/01/15 01:28:57;;;;;;;6.90;6.30;;;1.40;78.40;;;;;;5006108;28;20480;-53
2024/01/15 01:31:25;;;;;;;7.70;6.87;;;1.40;76.70;;;;;;5011276;28;21580;-52
2024/01/15 01:33:52;;;;;;;8.20;7.50;;;1.30;81.70;;;;;;5006759;28;20596;-53
2024/01/15 01:36:19;;;;;;;7.07;6.47;;;1.40;86.60;;;;;;5011761;28;20452;-51
2024/01/15 01:38:45;;;;;;;8.80;6.17;;;1.40;87.50;;;;;;5010941;28;20490;-52
2024/01/15 01:41:12;;;;;;;8.00;6.90;;;1.30;92.10;;;;;;5011528;28;20521;-52
2024/01/15 01:43:39;;;;;;;7.80;6.70;;;1.40;99.90;;;;;;5010848;28;20566;-52
2024/01/15 01:46:07;;;;;;;7.17;6.47;;;1.40;99.90;;;;;;5008357;28;20564;-52
2024/01/15 01:48:35;;;;;;;8.03;7.27;;;1.40;99.90;;;;;;5004700;28;20468;-52
2024/01/15 01:51:04;;;;;;;7.97;5.67;;;1.40;99.90;;;;;;5010697;28;20966;-51
2024/01/15 01:53:32;;;;;;;6.70;5.97;;;1.40;99.90;;;;;;5011046;28;20463;-53
2024/01/15 01:55:59;;;;;;;7.80;6.87;;;1.40;99.90;;;;;;5009870;28;20483;-52
2024/01/15 01:58:27;;;;;;;8.90;6.60;;;1.40;99.90;;;;;;5007015;28;20475;-51
2024/01/15 02:00:54;;;;;;;7.93;6.37;;;1.40;99.90;;;;;;5011080;28;20447;-51
2024/01/15 02:03:21;;;;;;;7.50;6.70;;;1.40;99.90;;;;;;5007259;28;20519;-53
2024/01/15 02:05:50;;;;;;;7.77;7.03;;;1.40;99.90;;;;;;5005568;28;20519;-53
2024/01/15 02:08:16;;;;;;;7.03;6.40;;;1.30;99.90;;;;;;5009667;28;20804;-52
2024/01/15 02:10:43;;;;;;;6.83;6.13;;;1.30;99.90;;;;;;5003120;28;20456;-52
2024/01/15 02:13:10;;;;;;;7.67;6.87;;;1.30;99.90;;;;;;5004501;28;20883;-52
2024/01/15 02:15:36;;;;;;;9.60;6.70;;;1.30;99.90;;;;;;5011554;28;20509;-52
2024/01/15 02:18:05;;;;;;;7.40;5.93;;;1.30;99.90;;;;;;5010978;28;20488;-52
2024/01/15 02:20:32;;;;;;;7.37;5.97;;;1.30;99.90;;;;;;5002699;28;20500;-53
2024/01/15 02:23:11;;;;;;;8.17;6.60;;;1.30;99.90;;;;;;5011446;28;20506;-51
2024/01/15 02:25:38;;;;;;;7.10;5.87;;;1.30;99.90;;;;;;5014877;28;20914;-51
2024/01/15 02:28:06;;;;;;;11.60;6.80;;;1.30;99.90;;;;;;5014996;28;20478;-52
2024/01/15 02:30:33;;;;;;;8.57;6.47;;;1.30;99.90;;;;;;5012693;28;20992;-51
2024/01/15 02:33:00;;;;;;;7.17;6.47;;;1.30;99.90;;;;;;5011648;28;20478;-53
2024/01/15 02:35:26;;;;;;;6.93;6.23;;;1.30;99.90;;;;;;5003821;28;20803;-52
2024/01/15 02:37:53;;;;;;;6.80;5.90;;;1.20;99.90;;;;;;5014924;28;20537;-52
2024/01/15 02:40:21;;;;;;;6.57;5.40;;;1.20;99.90;;;;;;5009982;28;20493;-52
2024/01/15 02:42:47;;;;;;;6.27;5.50;;;1.30;99.90;;;;;;5013988;28;20463;-52
2024/01/15 02:45:14;;;;;;;8.20;6.27;;;1.30;99.90;;;;;;5014571;28;20440;-52
2024/01/15 02:47:40;;;;;;;8.73;6.57;;;1.30;99.90;;;;;;5014235;28;20483;-51
2024/01/15 02:50:08;;;;;;;11.37;5.50;;;1.30;99.90;;;;;;5009944;28;20491;-52
2024/01/15 02:52:34;;;;;;;7.10;5.93;;;1.40;99.90;;;;;;5014209;28;20495;-52
2024/01/15 02:55:01;;;;;;;8.73;5.20;;;1.40;99.90;;;;;;5013091;28;20443;-52
2024/01/15 02:57:29;;;;;;;6.40;5.67;;;1.40;99.90;;;;;;5045483;23;20490;-53
2024/01/15 02:59:55;;;;;;;7.70;6.23;;;1.40;99.90;;;;;;5024752;28;20448;-54
2024/01/15 03:02:22;;;;;;;8.03;4.40;;;1.40;99.90;;;;;;5032870;28;20497;-54
2024/01/15 03:04:48;;;;;;;10.00;4.77;;;1.40;99.90;;;;;;5026234;28;20447;-54
2024/01/15 03:07:15;;;;;;;9.10;5.00;;;1.40;99.90;;;;;;5023655;28;20584;-53
2024/01/15 03:09:41;;;;;;;7.23;4.90;;;1.50;99.90;;;;;;5016816;28;20443;-54
2024/01/15 03:12:08;;;;;;;4.80;4.37;;;1.40;99.90;;;;;;5012060;28;20470;-55
2024/01/15 03:14:36;;;;;;;7.63;5.30;;;1.50;99.90;;;;;;5025833;28;20472;-55
2024/01/15 03:17:03;;;;;;;7.97;4.60;;;1.50;99.90;;;;;;5023911;28;20506;-54
2024/01/15 03:19:30;;;;;;;7.70;4.87;;;1.40;99.90;;;;;;5024501;28;20509;-54
2024/01/15 03:21:57;;;;;;;7.57;4.50;;;1.50;99.90;;;;;;5018307;28;20487;-54
2024/01/15 03:24:23;;;;;;;6.43;4.20;;;1.40;99.90;;;;;;5005262;28;20481;-54
2024/01/15 03:26:50;;;;;;;10.20;4.10;;;1.50;99.90;;;;;;5015818;28;20492;-54
2024/01/15 03:29:16;;;;;;;7.40;4.03;;;1.50;99.90;;;;;;5015176;28;20961;-54
2024/01/15 03:31:44;;;;;;;7.70;4.67;;;1.60;99.90;;;;;;5016591;28;20456;-54
2024/01/15 03:34:11;;;;;;;8.27;4.33;;;1.60;99.90;;;;;;5010742;28;20439;-53
2024/01/15 03:36:37;;;;;;;6.33;4.00;;;1.60;99.90;;;;;;5012821;28;20460;-53
2024/01/15 03:39:04;;;;;;;6.63;3.70;;;1.60;99.90;;;;;;5006246;28;20973;-53
2024/01/15 03:41:30;;;;;;;10.33;4.50;;;1.60;99.90;;;;;;5010676;28;20468;-53
2024/01/15 03:43:58;;;;;;;8.33;4.30;;;1.60;99.90;;;;;;5013952;28;20448;-54
2024/01/15 03:46:25;;;;;;;10.20;4.43;;;1.60;99.90;;;;;;5013479;28;20515;-53
2024/01/15 03:48:53;;;;;;;7.90;4.20;;;1.60;99.90;;;;;;5019815;28;20475;-54
2024/01/15 03:51:20;;;;;;;11.00;4.20;;;1.60;99.90;;;;;;5008746;28;20969;-54
2024/01/15 03:53:47;;;;;;;7.80;4.17;;;1.60;99.90;;;;;;5009835;28;20538;-54
2024/01/15 03:56:13;;;;;;;5.87;4.47;;;1.60;99.90;;;;;;5001862;28;20467;-54
2024/01/15 03:58:40;;;;;;;5.17;4.50;;;1.60;99.90;;;;;;5009929;28;20529;-54
2024/01/15 04:01:10;;;;;;;6.60;4.40;;;1.60;99.90;;;;;;5011708;28;20459;-54
2024/01/15 04:03:36;;;;;;;7.87;4.20;;;1.60;99.90;;;;;;5011526;28;20459;-54
2024/01/15 04:06:05;;;;;;;14.70;4.77;;;1.70;99.90;;;;;;5003293;28;20463;-54
2024/01/15 04:08:31;;;;;;;7.87;3.73;;;1.70;99.90;;;;;;5010935;28;20515;-53
2024/01/15 04:10:58;;;;;;;6.93;4.10;;;1.70;99.90;;;;;;5009420;28;20468;-54
2024/01/15 04:13:25;;;;;;;12.23;4.37;;;1.70;99.90;;;;;;5007311;28;20503;-54
2024/01/15 04:15:51;;;;;;;9.07;4.00;;;1.80;99.90;;;;;;5015934;28;21000;-53
2024/01/15 04:18:18;;;;;;;8.77;3.80;;;1.80;99.90;;;;;;5008746;28;20552;-54
2024/01/15 04:20:44;;;;;;;9.13;4.07;;;1.80;99.90;;;;;;5011649;28;20459;-53
2024/01/15 04:23:12;;;;;;;5.77;4.07;;;1.80;99.90;;;;;;5009735;28;20455;-53
2024/01/15 04:25:42;;;;;;;4.53;3.30;;;1.80;99.90;;;;;;5015195;28;20495;-53
2024/01/15 04:28:09;;;;;;;6.13;3.33;;;1.70;99.90;;;;;;5013377;28;20487;-54
2024/01/15 04:30:35;;;;;;;5.80;3.33;;;1.80;99.90;;;;;;5008413;28;20598;-53
2024/01/15 04:33:02;;;;;;;10.03;3.50;;;1.80;94.60;;;;;;5008721;28;20464;-54
2024/01/15 04:35:28;;;;;;;8.93;3.10;;;1.80;99.90;;;;;;5011526;28;20965;-53
2024/01/15 04:37:55;;;;;;;9.17;3.53;;;1.90;90.70;;;;;;5012730;28;20464;-53
2024/01/15 04:40:23;;;;;;;5.87;3.17;;;1.80;96.70;;;;;;5011709;28;20534;-53
2024/01/15 04:42:49;;;;;;;6.70;3.67;;;1.90;23.50;;;;;;5006493;28;20470;-54
2024/01/15 04:45:18;;;;;;;10.00;5.50;;;1.90;29.30;;;;;;5007495;28;20467;-54
2024/01/15 04:47:44;;;;;;;8.90;3.80;;;1.90;25.10;;;;;;5013530;28;20526;-53
2024/01/15 04:50:11;;;;;;;10.47;4.33;;;1.90;22.80;;;;;;5001797;28;20464;-53
2024/01/15 04:52:37;;;;;;;6.80;3.90;;;1.90;26.30;;;;;;5022965;28;20801;-54
2024/01/15 04:55:05;;;;;;;5.60;3.20;;;1.90;23.10;;;;;;5013957;28;20444;-54
2024/01/15 04:57:32;;;;;;;8.17;3.50;;;1.90;99.90;;;;;;5016399;28;20476;-54
2024/01/15 04:59:59;;;;;;;6.73;3.43;;;1.80;99.90;;;;;;5012876;28;20495;-54
2024/01/15 05:02:26;;;;;;;8.57;3.20;;;1.80;99.90;;;;;;5021659;28;20497;-54
2024/01/15 05:04:52;;;;;;;7.23;3.20;;;1.80;99.90;;;;;;5015853;28;20464;-53
2024/01/15 05:07:19;;;;;;;10.73;3.07;;;1.80;99.20;;;;;;5015152;28;20491;-53
2024/01/15 05:09:45;;;;;;;4.60;2.87;;;1.90;99.90;;;;;;5009046;28;20463;-53
2024/01/15 05:12:12;;;;;;;2.70;2.37;;;1.90;99.90;;;;;;5017367;28;20452;-54
2024/01/15 05:14:40;;;;;;;4.23;2.93;;;1.90;99.90;;;;;;5016258;28;20462;-53
2024/01/15 05:17:06;;;;;;;6.13;4.20;;;1.70;99.90;;;;;;5011924;28;20475;-54
2024/01/15 05:19:33;;;;;;;6.07;2.57;;;1.50;99.90;;;;;;5020734;28;20504;-53
2024/01/15 05:21:59;;;;;;;10.23;3.93;;;1.40;99.90;;;;;;5013172;28;20467;-53
2024/01/15 05:24:26;;;;;;;7.03;3.07;;;1.30;99.90;;;;;;5005683;28;20566;-53
2024/01/15 05:26:53;;;;;;;3.53;2.50;;;1.30;99.90;;;;;;5018028;28;20487;-53
2024/01/15 05:29:19;;;;;;;7.97;2.27;;;1.40;99.90;;;;;;5016704;28;20456;-53
2024/01/15 05:31:47;;;;;;;7.37;3.30;;;1.40;99.90;;;;;;5015774;28;20447;-54
2024/01/15 05:34:14;;;;;;;4.80;3.03;;;1.40;99.90;;;;;;5011365;28;20439;-53
2024/01/15 05:36:40;;;;;;;7.57;2.37;;;1.50;99.90;;;;;;5020972;28;20462;-53
2024/01/15 05:39:07;;;;;;;3.57;1.93;;;1.60;99.90;;;;;;5012787;28;20994;-53
2024/01/15 05:41:33;;;;;;;4.97;2.30;;;1.50;99.90;;;;;;5009713;28;20466;-53
2024/01/15 05:44:00;;;;;;;4.90;2.20;;;1.60;99.90;;;;;;5005903;28;20514;-54
2024/01/15 05:46:27;;;;;;;4.07;1.80;;;1.70;99.90;;;;;;5012276;28;21035;-54
2024/01/15 05:48:54;;;;;;;6.60;3.10;;;1.70;99.90;;;;;;5015385;28;20514;-54
2024/01/15 05:51:21;;;;;;;4.60;1.80;;;1.70;99.90;;;;;;5018889;28;20443;-54
2024/01/15 05:53:48;;;;;;;7.17;2.40;;;1.70;99.90;;;;;;5013648;28;20932;-54
2024/01/15 05:56:14;;;;;;;4.20;2.37;;;1.70;99.90;;;;;;5013204;28;20945;-53
2024/01/15 05:58:41;;;;;;;3.70;2.20;;;1.70;99.90;;;;;;5016629;28;20448;-54
2024/01/15 06:01:07;;;;;;;9.00;2.20;;;1.70;99.90;;;;;;5013380;28;20567;-53
2024/01/15 06:03:34;;;;;;;8.23;2.90;;;1.70;99.90;;;;;;5021293;28;20467;-53
2024/01/15 06:06:02;;;;;;;2.60;1.80;;;1.70;99.90;;;;;;5018182;28;20446;-53
2024/01/15 06:08:29;;;;;;;5.40;2.13;;;1.70;99.90;;;;;;5016504;28;20486;-53
2024/01/15 06:10:57;;;;;;;3.20;1.90;;;1.70;99.90;;;;;;5022956;28;21002;-53
2024/01/15 06:13:23;;;;;;;4.20;1.63;;;1.80;99.90;;;;;;5012557;28;20494;-53
2024/01/15 06:15:50;;;;;;;4.37;2.03;;;1.80;99.90;;;;;;5014538;28;21032;-54
2024/01/15 06:18:16;;;;;;;7.93;2.47;;;1.90;99.90;;;;;;5019594;28;20826;-54
2024/01/15 06:20:43;;;;;;;13.83;2.13;;;1.80;99.90;;;;;;5018466;28;20890;-54
2024/01/15 06:23:11;;;;;;;5.17;1.97;;;1.90;99.90;;;;;;5017541;28;20456;-53
2024/01/15 06:25:38;;;;;;;3.07;1.80;;;1.90;99.90;;;;;;5022109;28;20447;-54
2024/01/15 06:28:05;;;;;;;6.00;2.37;;;1.90;99.90;;;;;;5016358;28;20484;-54
2024/01/15 06:30:32;;;;;;;9.23;2.33;;;1.90;99.90;;;;;;5010793;28;20475;-53
2024/01/15 06:32:58;;;;;;;3.37;1.60;;;1.90;99.90;;;;;;5014466;28;20443;-53
2024/01/15 06:35:25;;;;;;;4.63;2.37;;;1.80;99.90;;;;;;5022927;28;20471;-54
2024/01/15 06:37:51;;;;;;;4.73;1.70;;;1.90;99.90;;;;;;5018873;28;20460;-54
2024/01/15 06:40:19;;;;;;;5.93;1.90;;;1.80;99.90;;;;;;5013538;28;20510;-53
2024/01/15 06:42:46;;;;;;;5.60;2.00;;;1.80;99.90;;;;;;5000065;28;20488;-53
2024/01/15 06:45:12;;;;;;;2.83;2.10;;;1.90;99.90;;;;;;5012428;28;20479;-53
2024/01/15 06:47:39;;;;;;;3.53;2.13;;;1.90;99.90;;;;;;5005658;28;20519;-60
2024/01/15 06:50:06;;;;;;;4.97;2.17;;;1.80;99.90;;;;;;5014642;28;20452;-54
2024/01/15 06:52:33;;;;;;;6.80;1.90;;;1.80;99.90;;;;;;5012677;28;20534;-53
2024/01/15 06:55:00;;;;;;;8.93;2.70;;;1.80;99.90;;;;;;5011871;28;20468;-53
2024/01/15 06:57:28;;;;;;;5.63;2.27;;;1.80;99.90;;;;;;5004408;28;20511;-53
2024/01/15 06:59:54;;;;;;;11.50;2.60;;;1.80;99.90;;;;;;5011658;28;20487;-53
2024/01/15 07:02:21;;;;;;;8.97;2.40;;;1.90;99.90;;;;;;5013169;28;20487;-53
2024/01/15 07:04:47;;;;;;;5.80;1.80;;;1.90;99.90;;;;;;4999928;28;20475;-54
2024/01/15 07:07:14;;;;;;;6.70;1.90;;;1.70;99.90;;;;;;5009394;28;20510;-53
2024/01/15 07:09:41;;;;;;;5.43;1.97;;;1.50;99.90;;;;;;5010245;28;20498;-53
2024/01/15 07:12:08;;;;;;;4.73;2.07;;;1.30;99.90;;;;;;5002582;28;20844;-54
2024/01/15 07:14:36;;;;;;;6.70;3.00;;;1.20;99.90;;;;;;5012683;28;20491;-54
2024/01/15 07:17:03;;;;;;;9.13;2.57;;;1.20;99.90;;;;;;5008657;28;20483;-53
2024/01/15 07:19:29;;;;;;;7.63;2.63;;;1.20;99.90;;;;;;5010827;28;20463;-54
2024/01/15 07:21:56;;;;;;;7.70;2.37;;;1.20;99.90;;;;;;5012678;28;20489;-55
2024/01/15 07:24:23;;;;;;;10.67;2.93;;;1.20;94.60;;;;;;5008623;28;20492;-54
2024/01/15 07:26:49;;;;;;;3.57;1.47;;;1.10;90.50;;;;;;5006715;28;20476;-55
2024/01/15 07:29:16;;;;;;;8.80;2.80;;;1.00;82.90;;;;;;5007466;28;20491;-55
2024/01/15 07:31:49;;;;;;;5.53;2.77;;;1.00;73.00;;;;;;5011570;28;20487;-53
2024/01/15 07:34:15;;;;;;;7.00;2.53;;;1.10;70.90;;;;;;5009472;28;22508;-54
2024/01/15 07:36:42;;;;;;;11.50;3.30;;;1.10;68.90;;;;;;5010955;28;20508;-54
2024/01/15 07:39:09;;;;;;;6.23;2.33;;;1.10;68.20;;;;;;5011421;28;20442;-53
2024/01/15 07:41:35;;;;;;;5.90;2.20;;;1.00;67.40;;;;;;5013257;28;20459;-54
2024/01/15 07:44:02;;;;;;;6.47;2.53;;;1.10;67.80;;;;;;5006313;28;21024;-53
2024/01/15 07:46:29;;;;;;;9.60;2.87;;;1.10;69.80;;;;;;5006405;28;20511;-54
2024/01/15 07:48:57;;;;;;;10.80;2.27;;;1.20;88.70;;;;;;5008808;28;20522;-54
2024/01/15 07:51:24;;;;;;;7.10;2.40;;;1.40;99.90;;;;;;5008539;28;20464;-54
2024/01/15 07:53:51;;;;;;;10.27;2.70;;;1.50;99.90;;;;;;5008463;28;20500;-57
2024/01/15 07:56:18;;;;;;;10.03;2.50;;;1.60;99.90;;;;;;5005703;28;20473;-56
2024/01/15 07:58:44;;;;;;;9.30;2.50;;;1.60;99.90;;;;;;5004479;28;20456;-55
2024/01/15 08:01:11;;;;;;;7.73;2.90;;;1.50;99.90;;;;;;5013097;28;20454;-54
2024/01/15 08:03:38;;;;;;;7.83;2.70;;;1.50;99.90;;;;;;5009954;28;20455;-55
2024/01/15 08:06:09;;;;;;;10.17;3.80;;;1.50;99.90;;;;;;5012681;28;20436;-53
2024/01/15 08:08:36;;;;;;;10.07;2.23;;;1.50;99.90;;;;;;5016481;28;20491;-55
2024/01/15 08:11:03;;;;;;;9.10;2.57;;;1.60;99.90;;;;;;5012246;28;20815;-53
2024/01/15 08:13:30;;;;;;;10.23;2.67;;;1.60;99.90;;;;;;5012665;28;20443;-53
2024/01/15 08:15:57;;;;;;;6.20;2.57;;;1.70;99.90;;;;;;5011730;28;20456;-54
2024/01/15 08:18:23;;;;;;;5.73;2.20;;;1.70;99.90;;;;;;5011134;28;20507;-54
2024/01/15 08:20:51;;;;;;;4.60;2.50;;;1.80;99.90;;;;;;5011370;28;20467;-54
2024/01/15 08:23:19;;;;;;;7.20;2.80;;;1.80;99.90;;;;;;5004053;28;20468;-54
2024/01/15 08:25:46;;;;;;;9.40;2.20;;;1.70;99.90;;;;;;4996517;28;20513;-55
2024/01/15 08:28:12;;;;;;;14.53;2.90;;;1.70;99.90;;;;;;5015105;28;20487;-55
2024/01/15 08:30:39;;;;;;;11.30;3.20;;;1.80;99.90;;;;;;5020249;28;20444;-55
2024/01/15 08:33:06;;;;;;;10.30;2.40;;;1.90;99.90;;;;;;5025943;28;20447;-54
2024/01/15 08:35:32;;;;;;;11.60;3.20;;;1.80;99.90;;;;;;5028367;28;20471;-54
2024/01/15 08:37:59;;;;;;;9.70;2.63;;;1.90;99.90;;;;;;5022660;28;20492;-54
2024/01/15 08:40:27;;;;;;;6.53;2.67;;;1.90;99.90;;;;;;5024347;28;20460;-55
2024/01/15 08:42:53;;;;;;;4.50;2.37;;;1.90;99.90;;;;;;5014094;28;20486;-53
2024/01/15 08:45:21;;;;;;;8.87;2.20;;;1.90;99.90;;;;;;5001141;28;20523;-54
2024/01/15 08:47:48;;;;;;;8.23;2.20;;;1.90;99.90;;;;;;5006136;28;20489;-56
2024/01/15 08:50:14;;;;;;;12.33;4.50;;;2.00;99.90;;;;;;5003211;28;20553;-54
2024/01/15 08:52:41;;;;;;;5.97;2.13;;;2.00;99.90;;;;;;5006925;28;20525;-54
2024/01/15 08:55:08;;;;;;;4.37;1.87;;;2.00;99.90;;;;;;5012791;28;20494;-54
2024/01/15 08:57:36;;;;;;;11.73;2.50;;;2.10;99.90;;;;;;5029171;22;20552;-54
2024/01/15 09:00:03;;;;;;;6.00;2.83;;;2.00;99.90;;;;;;5028326;28;20467;-53
2024/01/15 09:02:30;;;;;;;6.37;2.57;;;1.90;99.90;;;;;;5025964;28;20488;-54
2024/01/15 09:04:57;;;;;;;7.90;2.40;;;1.90;99.90;;;;;;5023757;28;21038;-53
2024/01/15 09:07:25;;;;;;;8.07;2.67;;;1.80;99.90;;;;;;5025027;28;20514;-53
2024/01/15 09:09:51;;;;;;;4.97;2.10;;;1.80;99.90;;;;;;5022755;28;20484;-54
2024/01/15 09:12:20;;;;;;;9.57;2.33;;;1.90;99.90;;;;;;5026608;28;20494;-54
2024/01/15 09:14:49;;;;;;;8.77;3.07;;;1.80;99.90;;;;;;5019656;28;20468;-54
2024/01/15 09:17:15;;;;;;;5.60;2.37;;;1.80;99.90;;;;;;5024137;28;20489;-54
2024/01/15 09:19:42;;;;;;;5.77;2.17;;;1.80;99.90;;;;;;5021820;28;20509;-53
2024/01/15 09:22:09;;;;;;;12.40;2.30;;;1.90;99.90;;;;;;5027952;28;20451;-55
2024/01/15 09:24:35;;;;;;;6.53;2.10;;;2.00;99.90;;;;;;5022366;28;20446;-54
2024/01/15 09:27:03;;;;;;;7.33;2.20;;;2.00;99.90;;;;;;5019013;28;20525;-53
2024/01/15 09:29:29;;;;;;;9.30;2.00;;;2.10;99.90;;;;;;5031856;28;20480;-53
2024/01/15 09:31:57;;;;;;;5.30;2.13;;;2.10;99.90;;;;;;5019654;28;20538;-54
2024/01/15 09:34:24;;;;;;;11.80;2.43;;;2.20;99.90;;;;;;5025987;28;20451;-54
2024/01/15 09:36:50;;;;;;;6.33;2.20;;;2.20;99.90;;;;;;5022411;28;20463;-53
2024/01/15 09:39:17;;;;;;;5.57;2.00;;;2.20;99.90;;;;;;5024611;28;20454;-54
2024/01/15 09:41:44;;;;;;;7.80;2.40;;;2.20;99.90;;;;;;5022245;28;20872;-53
2024/01/15 09:44:12;;;;;;;5.63;2.00;;;2.30;99.90;;;;;;5032502;28;20959;-54
2024/01/15 09:46:39;;;;;;;5.63;2.30;;;2.30;92.70;;;;;;5022909;28;20487;-53
2024/01/15 09:49:08;;;;;;;4.17;1.70;;;2.30;96.20;;;;;;5023677;28;20557;-55
2024/01/15 09:51:36;;;;;;;7.80;1.87;;;2.30;83.10;;;;;;5027923;28;20463;-54
2024/01/15 09:54:03;;;;;;;6.60;1.97;;;2.40;81.70;;;;;;5024166;28;20910;-53
2024/01/15 09:56:31;;;;;;;3.07;1.87;;;2.40;93.40;;;;;;5027640;28;20597;-53
2024/01/15 09:58:58;;;;;;;6.53;2.43;;;2.60;95.00;;;;;;5025245;28;20486;-55
2024/01/15 10:01:25;;;;;;;3.20;1.87;;;2.70;28.80;;;;;;5017767;28;20459;-52
2024/01/15 10:03:52;;;;;;;5.10;2.00;;;2.70;35.20;;;;;;5024205;28;20895;-53
2024/01/15 10:06:22;;;;;;;6.83;2.23;;;2.60;34.00;;;;;;5024154;28;20461;-53
2024/01/15 10:08:50;;;;;;;7.47;2.17;;;2.60;31.00;;;;;;5021348;28;20892;-53
2024/01/15 10:11:17;;;;;;;7.73;2.10;;;2.60;28.80;;;;;;5027579;28;20526;-54
2024/01/15 10:13:44;;;;;;;5.27;1.93;;;2.60;31.20;;;;;;5022005;28;20475;-53
2024/01/15 10:16:11;;;;;;;8.40;2.20;;;2.60;37.10;;;;;;5034515;28;20459;-53
2024/01/15 10:18:39;;;;;;;4.13;1.40;;;2.60;38.50;;;;;;5023457;28;20479;-53
2024/01/15 10:21:07;;;;;;;7.43;2.10;;;2.60;42.00;;;;;;5023430;28;21059;-53
2024/01/15 10:23:36;;;;;;;4.60;1.43;;;2.60;36.00;;;;;;5023310;28;20486;-54
2024/01/15 10:26:02;;;;;;;5.83;1.73;;;2.50;36.70;;;;;;5027898;28;20459;-53
2024/01/15 10:28:30;;;;;;;3.73;1.30;;;2.50;38.70;;;;;;5031423;28;20514;-54
2024/01/15 10:30:58;;;;;;;2.87;1.47;;;2.50;39.50;;;;;;5022264;28;20820;-54
2024/01/15 10:33:26;;;;;;;3.60;1.77;;;2.50;41.90;;;;;;5022364;28;20442;-53
2024/01/15 10:35:54;;;;;;;4.43;1.80;;;2.50;40.70;;;;;;5022755;28;20463;-53
2024/01/15 10:38:22;;;;;;;4.13;3.30;;;2.50;41.90;;;;;;5021233;28;20986;-53
2024/01/15 10:40:52;;;;;;;4.87;1.80;;;2.60;37.50;;;;;;5014662;28;20459;-54
2024/01/15 10:43:19;;;;;;;3.07;1.40;;;2.60;45.80;;;;;;5020092;28;21560;-54
2024/01/15 10:45:46;;;;;;;2.77;2.30;;;2.70;53.20;;;;;;5018175;28;20502;-53
2024/01/15 10:48:13;;;;;;;3.67;1.90;;;2.70;54.60;;;;;;5025023;28;20516;-54
2024/01/15 10:50:39;;;;;;;4.50;1.70;;;2.70;54.20;;;;;;5023848;28;20478;-54
2024/01/15 10:53:07;;;;;;;5.83;1.87;;;2.80;51.60;;;;;;5021728;28;20463;-53
2024/01/15 10:55:35;;;;;;;3.23;2.33;;;2.80;53.90;;;;;;5026188;28;20490;-54
2024/01/15 10:58:04;;;;;;;4.33;1.80;;;2.80;65.30;;;;;;5026296;28;20908;-54
2024/01/15 11:00:31;;;;;;;5.80;1.70;;;2.90;66.00;;;;;;5043060;28;20469;-53
2024/01/15 11:02:58;;;;;;;2.40;2.00;;;2.80;64.20;;;;;;5039281;28;20463;-55
2024/01/15 11:05:26;;;;;;;2.80;1.60;;;2.80;65.00;;;;;;5033162;28;20509;-53
2024/01/15 11:07:56;;;;;;;6.70;1.80;;;2.90;62.70;;;;;;5024073;28;20533;-54
2024/01/15 11:10:42;;;;;;;2.30;1.60;;;2.80;65.90;;;;;;5022405;28;20513;-53
2024/01/15 11:13:11;;;;;;;3.83;1.10;;;2.70;60.90;;;;;;5025550;28;20490;-54
2024/01/15 11:15:55;;;;;;;3.07;1.60;;;2.70;60.50;;;;;;5025572;28;21024;-54
2024/01/15 11:18:22;;;;;;;1.70;1.17;;;2.80;60.90;;;;;;5024136;28;20474;-54
2024/01/15 11:21:24;;;;;;;1.53;1.43;;;2.80;59.90;;;;;;5020261;28;20944;-54
2024/01/15 11:23:53;;;;;;;2.90;1.33;;;2.80;58.60;;;;;;5030231;28;20454;-54
2024/01/15 11:26:36;;;;;;;1.87;1.20;;;2.70;63.20;;;;;;5025859;28;20487;-53
2024/01/15 11:29:05;;;;;;;1.63;1.33;;;2.80;59.80;;;;;;5028158;28;21174;-53
2024/01/15 11:32:04;;;;;;;2.40;1.20;;;2.80;61.70;;;;;;5024223;28;20960;-53
2024/01/15 11:34:54;;;;;;;2.73;1.10;;;2.80;60.80;;;;;;5020068;28;20463;-54
2024/01/15 11:37:23;;;;;;;1.00;0.90;;;2.80;61.80;;;;;;5024203;28;21216;-54
2024/01/15 11:39:52;;;;;;;1.63;1.30;;;2.70;56.80;;;;;;5023211;28;20546;-54
2024/01/15 11:42:20;;;;;;;1.47;1.10;;;2.70;57.60;;;;;;5023790;28;20536;-54
2024/01/15 11:44:48;;;;;;;3.20;1.50;;;2.80;58.80;;;;;;5020111;28;20522;-54
2024/01/15 11:47:15;;;;;;;2.93;1.03;;;2.80;55.60;;;;;;5021249;28;20486;-54
2024/01/15 11:50:10;;;;;;;0.97;0.83;;;2.80;63.60;;;;;;5025071;28;21070;-53
2024/01/15 11:52:38;;;;;;;1.70;1.00;;;2.70;51.30;;;;;;4991500;28;20961;-53
2024/01/15 11:55:14;;;;;;;0.80;0.80;;;2.70;37.20;;;;;;5024561;28;21008;-54
2024/01/15 11:57:46;;;;;;;0.90;0.90;;;2.60;20.50;;;;;;5029969;28;20482;-53
2024/01/15 12:00:15;;;;;;;1.10;1.00;;;2.50;99.90;;;;;;5028111;28;20809;-54
2024/01/15 12:02:43;;;;;;;1.27;1.17;;;2.30;99.90;;;;;;5025716;28;20470;-54
2024/01/15 12:05:09;;;;;;;1.53;1.00;;;2.30;99.90;;;;;;5026595;28;20513;-53
2024/01/15 12:07:36;;;;;;;0.93;0.90;;;2.30;99.90;;;;;;5024578;28;20479;-54
2024/01/15 12:10:03;;;;;;;1.67;1.40;;;2.20;99.90;;;;;;5027770;28;20486;-54
2024/01/15 12:12:54;;;;;;;1.93;1.20;;;2.30;99.90;;;;;;5021540;28;20849;-54
2024/01/15 12:15:22;;;;;;;1.03;0.90;;;2.20;99.90;;;;;;5030816;28;20463;-54
2024/01/15 12:17:49;;;;;;;1.67;0.90;;;2.20;99.90;;;;;;5021337;28;20506;-54
2024/01/15 12:20:16;;;;;;;1.73;1.20;;;2.20;99.90;;;;;;5025607;28;20491;-53
2024/01/15 12:22:43;;;;;;;1.33;1.33;;;2.20;99.90;;;;;;5024602;28;20463;-54
2024/01/15 12:25:10;;;;;;;1.10;0.90;;;2.10;99.90;;;;;;5021953;28;20463;-54
2024/01/15 12:27:37;;;;;;;1.43;1.00;;;2.10;99.90;;;;;;5019930;28;20483;-53
2024/01/15 12:30:04;;;;;;;1.30;1.20;;;2.10;99.90;;;;;;5024691;28;20514;-54
2024/01/15 12:32:32;;;;;;;1.67;1.57;;;2.10;99.90;;;;;;5022262;28;20519;-54
2024/01/15 12:34:58;;;;;;;1.53;1.13;;;2.10;99.90;;;;;;5022934;28;20560;-54
2024/01/15 12:37:25;;;;;;;2.20;1.20;;;2.10;99.90;;;;;;5042415;28;20551;-54
2024/01/15 12:39:54;;;;;;;1.10;1.10;;;2.10;99.90;;;;;;5034000;28;20455;-53
2024/01/15 12:42:22;;;;;;;1.83;1.27;;;2.10;99.90;;;;;;5022727;28;20464;-54
2024/01/15 12:44:48;;;;;;;1.30;1.20;;;2.10;99.90;;;;;;5025063;28;20844;-54
2024/01/15 12:47:17;;;;;;;1.47;1.43;;;2.10;99.90;;;;;;5015993;28;20482;-54
2024/01/15 12:49:47;;;;;;;1.53;1.20;;;2.20;99.90;;;;;;5024324;28;20544;-54
2024/01/15 12:52:14;;;;;;;1.23;1.13;;;2.20;99.90;;;;;;5026950;28;20507;-54
2024/01/15 12:54:41;;;;;;;1.40;1.20;;;2.20;99.90;;;;;;5028237;28;20490;-53
2024/01/15 12:57:07;;;;;;;2.30;1.03;;;2.20;99.90;;;;;;5025176;28;20552;-54